Time;durP1;ratioP1;P1;durP2;ratioP2;P2;SDS_P1;SDS_P2;PMS_P1;PMS_P2;Temp;Humidity;BMP_temperature;BMP_pressure;BME280_temperature;BME280_humidity;BME280_pressure;Samples;Min_cycle;Max_cycle;Signal;HPM_P1;HPM_P2
2022/10/17 00:00:47;;;;;;;74.45;40.20;;;9.70;99.90;;;;;;4976445;28;20023;-75
2022/10/17 00:03:13;;;;;;;75.07;39.65;;;9.60;99.90;;;;;;4976259;28;20533;-75
2022/10/17 00:05:45;;;;;;;80.10;39.65;;;9.60;99.90;;;;;;4976572;28;20031;-75
2022/10/17 00:08:12;;;;;;;72.10;37.15;;;9.60;99.90;;;;;;4977548;28;20042;-75
2022/10/17 00:10:38;;;;;;;66.38;36.80;;;9.50;99.90;;;;;;4975906;28;20391;-76
2022/10/17 00:13:05;;;;;;;78.30;38.22;;;9.50;99.90;;;;;;4976149;28;20026;-75
2022/10/17 00:15:31;;;;;;;69.18;37.83;;;9.40;99.90;;;;;;4976637;28;20364;-75
2022/10/17 00:17:57;;;;;;;77.70;39.50;;;9.40;99.90;;;;;;4977979;28;20378;-75
2022/10/17 00:20:23;;;;;;;77.97;39.38;;;9.40;99.90;;;;;;4977133;28;20022;-75
2022/10/17 00:22:49;;;;;;;75.28;38.83;;;9.30;99.90;;;;;;4976569;28;20375;-75
2022/10/17 00:25:15;;;;;;;76.57;37.60;;;9.30;99.90;;;;;;4977787;28;20475;-75
2022/10/17 00:27:41;;;;;;;64.72;37.30;;;9.30;99.90;;;;;;4978233;28;20074;-76
2022/10/17 00:30:11;;;;;;;64.78;37.08;;;9.30;99.90;;;;;;4976497;28;20058;-75
2022/10/17 00:32:37;;;;;;;67.07;37.60;;;9.20;99.90;;;;;;4977947;28;20098;-75
2022/10/17 00:35:03;;;;;;;76.43;39.13;;;9.30;99.90;;;;;;4977960;28;20090;-75
2022/10/17 00:37:30;;;;;;;69.82;37.10;;;9.30;99.90;;;;;;4978143;28;20035;-76
2022/10/17 00:39:56;;;;;;;70.07;37.78;;;9.20;99.90;;;;;;4960636;28;20027;-76
2022/10/17 00:42:23;;;;;;;69.30;37.45;;;9.20;99.90;;;;;;4979574;28;20030;-75
2022/10/17 00:44:49;;;;;;;71.72;37.47;;;9.20;99.90;;;;;;4981573;28;20054;-76
2022/10/17 00:47:21;;;;;;;72.53;37.05;;;9.20;99.90;;;;;;4963922;28;20066;-75
2022/10/17 00:49:47;;;;;;;68.43;35.33;;;9.10;99.90;;;;;;4980865;28;20379;-75
2022/10/17 00:52:18;;;;;;;70.75;37.42;;;9.10;99.90;;;;;;4964134;28;20086;-75
2022/10/17 00:54:50;;;;;;;90.28;41.70;;;9.10;99.90;;;;;;4981269;28;20069;-76
2022/10/17 00:57:16;;;;;;;73.55;37.80;;;9.10;99.90;;;;;;4980717;28;20092;-75
2022/10/17 00:59:44;;;;;;;79.13;38.13;;;9.10;99.90;;;;;;4963210;28;20089;-75
2022/10/17 01:02:12;;;;;;;80.88;39.90;;;9.20;99.90;;;;;;4963573;28;20483;-76
2022/10/17 01:04:41;;;;;;;77.75;40.85;;;9.20;99.90;;;;;;4980275;28;20031;-76
2022/10/17 01:07:07;;;;;;;78.88;40.15;;;9.20;99.90;;;;;;4979900;28;20090;-76
2022/10/17 01:09:33;;;;;;;90.57;44.13;;;9.20;99.90;;;;;;4961399;28;20022;-75
2022/10/17 01:12:22;;;;;;;101.80;45.65;;;9.20;99.90;;;;;;4978604;28;20029;-76
2022/10/17 01:15:30;;;;;;;108.30;46.85;;;9.30;99.90;;;;;;4978958;28;20030;-75
2022/10/17 01:18:10;;;;;;;91.53;43.53;;;9.30;99.90;;;;;;4979467;28;20058;-75
2022/10/17 01:20:54;;;;;;;99.97;45.03;;;9.40;99.90;;;;;;4979942;28;20523;-76
2022/10/17 01:23:26;;;;;;;83.82;40.53;;;9.40;99.90;;;;;;4963060;28;20035;-75
2022/10/17 01:26:18;;;;;;;105.30;44.60;;;9.30;99.90;;;;;;4979941;28;20023;-76
2022/10/17 01:28:55;;;;;;;131.40;51.80;;;9.40;99.90;;;;;;4962911;28;20029;-75
2022/10/17 01:31:25;;;;;;;144.07;55.30;;;9.50;99.90;;;;;;4963792;28;20138;-75
2022/10/17 01:34:18;;;;;;;162.85;59.30;;;9.60;99.90;;;;;;4980556;28;20070;-75
2022/10/17 01:36:56;;;;;;;150.25;57.90;;;9.80;99.90;;;;;;4963987;28;20077;-76
2022/10/17 01:39:42;;;;;;;147.93;57.17;;;9.90;99.90;;;;;;4981397;28;20030;-75
2022/10/17 01:42:27;;;;;;;150.70;56.58;;;9.90;99.90;;;;;;4980912;28;20041;-76
2022/10/17 01:45:01;;;;;;;153.20;56.33;;;10.00;99.90;;;;;;4982197;28;20078;-76
2022/10/17 01:47:31;;;;;;;150.50;58.38;;;10.00;99.90;;;;;;4980875;28;20035;-75
2022/10/17 01:50:13;;;;;;;141.73;54.05;;;10.00;99.90;;;;;;4980442;28;20027;-75
2022/10/17 01:52:47;;;;;;;145.70;53.50;;;9.90;99.90;;;;;;4979703;28;20023;-75
2022/10/17 01:55:19;;;;;;;130.18;51.80;;;9.90;99.90;;;;;;4962735;28;20022;-75
2022/10/17 01:57:49;;;;;;;138.05;54.55;;;9.90;99.90;;;;;;4963691;28;20041;-76
2022/10/17 02:00:21;;;;;;;153.75;57.22;;;9.90;99.90;;;;;;4963126;28;20031;-76
2022/10/17 02:02:48;;;;;;;155.38;59.05;;;10.00;99.90;;;;;;4964235;28;20505;-75
2022/10/17 02:05:17;;;;;;;152.02;57.13;;;10.00;99.90;;;;;;4962632;28;20443;-75
2022/10/17 02:07:43;;;;;;;128.48;52.50;;;10.00;99.90;;;;;;4979628;28;20038;-75
2022/10/17 02:10:17;;;;;;;141.98;53.55;;;10.00;99.90;;;;;;4962399;28;20030;-76
2022/10/17 02:12:57;;;;;;;140.35;54.20;;;9.90;99.90;;;;;;4980078;28;20077;-75
2022/10/17 02:15:29;;;;;;;131.80;52.60;;;9.90;99.90;;;;;;4980518;28;20471;-75
2022/10/17 02:18:15;;;;;;;139.15;54.22;;;9.90;99.90;;;;;;4962735;28;20034;-75
2022/10/17 02:20:56;;;;;;;150.25;56.80;;;9.80;99.90;;;;;;4961340;28;20038;-76
2022/10/17 02:23:38;;;;;;;128.32;52.55;;;9.90;99.90;;;;;;4979805;28;20029;-76
2022/10/17 02:26:20;;;;;;;145.30;54.78;;;9.80;99.90;;;;;;4980205;28;20133;-75
2022/10/17 02:28:53;;;;;;;138.73;54.45;;;9.90;99.90;;;;;;4979711;28;20419;-76
2022/10/17 02:31:25;;;;;;;140.90;54.72;;;9.90;99.90;;;;;;4979033;28;20057;-75
2022/10/17 02:33:54;;;;;;;141.50;54.67;;;9.90;99.90;;;;;;4978160;28;20051;-75
2022/10/17 02:36:24;;;;;;;;;;;9.80;99.90;;;;;;4980877;28;20034;-76
2022/10/17 02:38:52;;;;;;;145.90;55.70;;;9.80;99.90;;;;;;4981610;28;19913;-76
2022/10/17 02:41:19;;;;;;;133.05;53.63;;;9.80;99.90;;;;;;4965495;28;20029;-76
2022/10/17 02:43:48;;;;;;;134.88;52.40;;;9.80;99.90;;;;;;4980830;28;20027;-76
2022/10/17 02:46:21;;;;;;;134.02;53.83;;;9.70;99.90;;;;;;4980310;28;20039;-76
2022/10/17 02:48:54;;;;;;;131.88;50.58;;;9.70;99.90;;;;;;4981178;28;20039;-76
2022/10/17 02:51:35;;;;;;;115.70;48.40;;;9.70;99.90;;;;;;4980161;28;20054;-75
2022/10/17 02:54:08;;;;;;;116.10;47.20;;;9.70;99.90;;;;;;4963380;28;20525;-75
2022/10/17 02:56:42;;;;;;;109.50;45.42;;;9.60;99.90;;;;;;4980227;28;20026;-75
2022/10/17 02:59:13;;;;;;;109.57;48.05;;;9.50;99.90;;;;;;4980120;28;20107;-75
2022/10/17 03:01:38;;;;;;;106.97;48.13;;;9.60;99.90;;;;;;4979854;28;20394;-75
2022/10/17 03:04:12;;;;;;;97.75;44.60;;;9.50;99.90;;;;;;4962658;28;20122;-75
2022/10/17 03:06:39;;;;;;;93.00;44.40;;;9.50;99.90;;;;;;4979294;28;20041;-75
2022/10/17 03:09:06;;;;;;;88.53;43.63;;;9.40;99.90;;;;;;4979980;28;20038;-75
2022/10/17 03:11:32;;;;;;;95.15;43.08;;;9.40;99.90;;;;;;4962114;28;20387;-75
2022/10/17 03:13:58;;;;;;;96.03;45.80;;;9.30;99.90;;;;;;4961855;28;20027;-75
2022/10/17 03:16:23;;;;;;;101.85;44.03;;;9.30;99.90;;;;;;4962442;28;20159;-75
2022/10/17 03:18:49;;;;;;;87.80;41.75;;;9.20;99.90;;;;;;4979731;28;20525;-75
2022/10/17 03:21:15;;;;;;;85.78;42.00;;;9.30;99.90;;;;;;4962985;28;20521;-75
2022/10/17 03:23:40;;;;;;;85.57;41.08;;;9.20;99.90;;;;;;4962143;28;20030;-75
2022/10/17 03:26:06;;;;;;;81.50;39.28;;;9.20;99.90;;;;;;4980143;28;20031;-75
2022/10/17 03:28:32;;;;;;;88.18;43.38;;;9.10;99.90;;;;;;4962642;28;20027;-75
2022/10/17 03:30:58;;;;;;;99.88;44.10;;;9.10;99.90;;;;;;4979878;28;20027;-75
2022/10/17 03:33:23;;;;;;;98.50;43.28;;;9.10;99.90;;;;;;4979968;28;20055;-75
2022/10/17 03:35:49;;;;;;;104.50;45.38;;;9.00;99.90;;;;;;4980128;28;20023;-75
2022/10/17 03:38:15;;;;;;;102.13;45.53;;;9.10;99.90;;;;;;4962179;28;20026;-75
2022/10/17 03:40:40;;;;;;;91.63;42.85;;;9.10;99.90;;;;;;4962124;28;20034;-75
2022/10/17 03:43:06;;;;;;;89.13;43.38;;;9.10;99.90;;;;;;4979321;28;20077;-75
2022/10/17 03:45:31;;;;;;;96.00;44.80;;;9.00;99.90;;;;;;4979792;28;20050;-75
2022/10/17 03:47:58;;;;;;;90.50;42.35;;;9.00;99.90;;;;;;4980376;28;20042;-75
2022/10/17 03:50:24;;;;;;;91.63;42.05;;;9.00;99.90;;;;;;4962161;28;20031;-75
2022/10/17 03:52:49;;;;;;;89.05;42.75;;;8.90;99.90;;;;;;4980221;28;20027;-75
2022/10/17 03:55:15;;;;;;;80.00;39.65;;;8.90;99.90;;;;;;4979263;28;20034;-75
2022/10/17 03:57:41;;;;;;;86.43;40.47;;;8.90;99.90;;;;;;4962747;28;20065;-75
2022/10/17 04:00:07;;;;;;;91.30;38.47;;;8.90;99.90;;;;;;4980599;28;20034;-75
2022/10/17 04:02:34;;;;;;;79.07;39.55;;;8.80;99.90;;;;;;4978394;28;20078;-75
2022/10/17 04:05:00;;;;;;;74.88;38.40;;;8.80;99.90;;;;;;4960826;28;20027;-75
2022/10/17 04:07:26;;;;;;;82.07;39.38;;;8.80;99.90;;;;;;4961441;28;20062;-78
2022/10/17 04:09:51;;;;;;;78.57;37.55;;;8.80;99.90;;;;;;4958212;28;20031;-76
2022/10/17 04:12:17;;;;;;;83.25;39.17;;;8.80;99.90;;;;;;4941253;29;20027;-76
2022/10/17 04:14:43;;;;;;;75.50;38.08;;;8.80;99.90;;;;;;4959568;28;20027;-75
2022/10/17 04:17:09;;;;;;;71.43;36.38;;;8.70;99.90;;;;;;4962871;28;20108;-75
2022/10/17 04:19:34;;;;;;;68.97;35.30;;;8.80;99.90;;;;;;4946931;29;20028;-75
2022/10/17 04:22:02;;;;;;;72.22;36.33;;;8.80;99.90;;;;;;4947728;29;20378;-75
2022/10/17 04:24:27;;;;;;;71.65;36.08;;;8.80;99.90;;;;;;4947469;29;20114;-76
2022/10/17 04:26:53;;;;;;;90.40;39.10;;;8.80;99.90;;;;;;4947192;29;20452;-75
2022/10/17 04:29:20;;;;;;;95.40;39.60;;;8.80;99.90;;;;;;4963941;29;20063;-75
2022/10/17 04:31:45;;;;;;;89.22;39.50;;;8.80;99.90;;;;;;4946539;29;20019;-74
2022/10/17 04:34:13;;;;;;;101.43;40.45;;;8.90;99.90;;;;;;4952017;28;20112;-75
2022/10/17 04:36:39;;;;;;;96.32;39.38;;;9.00;99.90;;;;;;4962518;29;20150;-75
2022/10/17 04:39:05;;;;;;;83.65;38.95;;;9.00;99.90;;;;;;4962414;29;20026;-75
2022/10/17 04:41:31;;;;;;;97.32;38.80;;;9.00;99.90;;;;;;4962828;28;20023;-75
2022/10/17 04:43:57;;;;;;;83.82;38.83;;;9.00;99.90;;;;;;4962262;28;20035;-75
2022/10/17 04:46:22;;;;;;;92.03;41.03;;;9.00;99.90;;;;;;4962721;29;20371;-75
2022/10/17 04:48:48;;;;;;;92.43;39.60;;;9.00;99.90;;;;;;4963079;28;20075;-76
2022/10/17 04:51:17;;;;;;;94.57;40.38;;;9.00;99.90;;;;;;4962622;29;20053;-75
2022/10/17 04:53:44;;;;;;;97.15;41.42;;;9.00;99.90;;;;;;4963360;28;20070;-75
2022/10/17 04:56:13;;;;;;;82.38;38.92;;;9.00;99.90;;;;;;4959735;29;20031;-75
2022/10/17 04:58:40;;;;;;;95.07;40.28;;;9.00;99.90;;;;;;4962935;28;20027;-82
2022/10/17 05:01:08;;;;;;;87.45;39.13;;;9.00;99.90;;;;;;5242717;23;20058;-83
2022/10/17 05:03:34;;;;;;;93.82;40.90;;;9.00;99.90;;;;;;5037996;28;20053;-84
2022/10/17 05:06:05;;;;;;;90.82;40.05;;;9.00;99.90;;;;;;5157795;23;20042;-87
2022/10/17 05:08:31;;;;;;;81.95;39.88;;;;;;;;;;5175086;23;20429;-82
2022/10/17 05:10:57;;;;;;;93.18;40.35;;;9.00;99.90;;;;;;5037579;28;20028;-84
2022/10/17 05:13:23;;;;;;;80.88;38.17;;;9.00;99.90;;;;;;5031104;28;20021;-81
2022/10/17 05:15:48;;;;;;;90.32;40.13;;;9.00;99.90;;;;;;5024041;28;20405;-75
2022/10/17 05:18:14;;;;;;;85.38;41.35;;;9.00;99.90;;;;;;5022131;28;20025;-75
2022/10/17 05:20:39;;;;;;;93.45;41.20;;;9.00;99.90;;;;;;5022121;28;20021;-75
2022/10/17 05:23:05;;;;;;;91.07;41.78;;;9.10;99.90;;;;;;5039738;28;20033;-75
2022/10/17 05:25:31;;;;;;;96.55;42.58;;;9.10;99.90;;;;;;5039346;28;20021;-75
2022/10/17 05:27:56;;;;;;;99.53;42.53;;;9.10;99.90;;;;;;5035434;28;20040;-66
2022/10/17 05:30:22;;;;;;;90.43;41.65;;;9.20;99.90;;;;;;5036021;28;20109;-66
2022/10/17 05:32:53;;;;;;;100.57;44.88;;;9.20;99.90;;;;;;5035668;28;20032;-66
2022/10/17 05:35:18;;;;;;;105.50;44.92;;;9.30;99.90;;;;;;5036014;28;20017;-66
2022/10/17 05:37:44;;;;;;;110.80;49.45;;;9.40;99.90;;;;;;5035703;28;20109;-66
2022/10/17 05:40:10;;;;;;;113.63;51.47;;;9.40;99.90;;;;;;5035830;28;20018;-66
2022/10/17 05:42:36;;;;;;;121.00;51.90;;;9.50;99.90;;;;;;5035566;28;20021;-66
2022/10/17 05:45:01;;;;;;;126.93;53.60;;;9.60;99.90;;;;;;5035743;28;20029;-66
2022/10/17 05:47:27;;;;;;;151.60;56.47;;;9.70;99.90;;;;;;5035340;28;20037;-67
2022/10/17 05:49:53;;;;;;;147.05;58.80;;;9.90;99.90;;;;;;5017884;28;20026;-67
2022/10/17 05:52:18;;;;;;;147.30;61.40;;;10.00;99.90;;;;;;5035301;28;20021;-66
2022/10/17 05:54:44;;;;;;;160.50;60.78;;;10.10;99.90;;;;;;5035718;28;20029;-66
2022/10/17 05:57:09;;;;;;;189.93;67.28;;;10.30;99.90;;;;;;5035318;28;20028;-66
2022/10/17 05:59:35;;;;;;;176.40;65.40;;;10.50;99.90;;;;;;5035867;28;20026;-67
2022/10/17 06:02:01;;;;;;;179.05;65.60;;;10.60;99.90;;;;;;5035812;28;20028;-67
2022/10/17 06:04:26;;;;;;;167.43;63.75;;;10.70;99.90;;;;;;5036050;28;20017;-74
2022/10/17 06:06:53;;;;;;;165.65;63.10;;;10.80;99.90;;;;;;5035564;28;20076;-74
2022/10/17 06:09:18;;;;;;;152.48;63.35;;;10.90;99.90;;;;;;5017620;28;20481;-73
2022/10/17 06:11:44;;;;;;;166.55;63.97;;;11.00;99.90;;;;;;5018494;28;20108;-74
2022/10/17 06:14:10;;;;;;;153.48;61.67;;;11.10;99.90;;;;;;5019137;28;20021;-75
2022/10/17 06:16:35;;;;;;;141.98;57.75;;;11.20;99.90;;;;;;5018321;28;20030;-74
2022/10/17 06:19:01;;;;;;;131.32;57.75;;;11.20;99.90;;;;;;5035756;28;20025;-74
2022/10/17 06:21:27;;;;;;;133.70;56.20;;;11.20;99.90;;;;;;5021141;28;20116;-74
2022/10/17 06:23:53;;;;;;;134.60;56.70;;;11.30;99.90;;;;;;5037107;28;20025;-74
2022/10/17 06:26:18;;;;;;;130.30;57.30;;;11.30;99.90;;;;;;5036347;28;20029;-74
2022/10/17 06:28:44;;;;;;;115.35;54.28;;;11.30;99.90;;;;;;5036857;28;20386;-74
2022/10/17 06:31:12;;;;;;;114.28;53.95;;;11.30;99.90;;;;;;5035107;28;20433;-73
2022/10/17 06:33:38;;;;;;;121.78;54.22;;;11.40;99.90;;;;;;5034792;28;20022;-73
2022/10/17 06:36:05;;;;;;;109.45;52.63;;;11.40;99.90;;;;;;5016842;28;20029;-73
2022/10/17 06:38:33;;;;;;;110.88;49.58;;;11.40;99.90;;;;;;5034539;28;20029;-73
2022/10/17 06:41:07;;;;;;;99.68;49.92;;;11.50;99.90;;;;;;5033894;28;20104;-74
2022/10/17 06:43:34;;;;;;;102.60;48.63;;;11.50;99.90;;;;;;5017071;28;20021;-74
2022/10/17 06:46:00;;;;;;;97.85;47.53;;;11.60;99.90;;;;;;5016724;28;20048;-74
2022/10/17 06:48:25;;;;;;;97.05;46.08;;;11.60;99.90;;;;;;5034566;28;20405;-74
2022/10/17 06:50:51;;;;;;;94.13;46.83;;;11.60;99.90;;;;;;5016706;28;20480;-73
2022/10/17 06:53:16;;;;;;;86.57;47.50;;;11.70;99.90;;;;;;5016923;28;20567;-74
2022/10/17 06:55:42;;;;;;;88.72;46.55;;;11.80;99.90;;;;;;5034094;28;20021;-74
2022/10/17 06:58:08;;;;;;;79.13;44.25;;;11.80;99.90;;;;;;5033865;28;20423;-74
2022/10/17 07:00:33;;;;;;;93.15;46.45;;;11.80;99.90;;;;;;5016546;28;20018;-73
2022/10/17 07:02:59;;;;;;;77.28;44.10;;;12.00;99.90;;;;;;5016416;28;20067;-73
2022/10/17 07:05:25;;;;;;;82.90;45.15;;;12.00;99.90;;;;;;5016786;28;20075;-74
2022/10/17 07:07:50;;;;;;;86.97;45.55;;;12.10;99.90;;;;;;5016585;28;20408;-73
2022/10/17 07:10:16;;;;;;;72.65;41.22;;;12.20;99.90;;;;;;5033768;28;20112;-73
2022/10/17 07:12:43;;;;;;;67.25;39.72;;;12.30;99.90;;;;;;5034055;28;20033;-73
2022/10/17 07:15:09;;;;;;;71.15;40.85;;;12.40;99.90;;;;;;5034181;28;20017;-74
2022/10/17 07:17:35;;;;;;;77.63;40.13;;;12.50;99.90;;;;;;5033869;28;20372;-73
2022/10/17 07:20:00;;;;;;;73.75;40.53;;;12.60;99.90;;;;;;5033759;28;20037;-74
2022/10/17 07:22:26;;;;;;;61.28;37.88;;;12.70;99.90;;;;;;5033567;28;20029;-74
2022/10/17 07:24:52;;;;;;;67.82;37.65;;;12.80;99.90;;;;;;5033729;28;20023;-74
2022/10/17 07:27:17;;;;;;;53.13;33.25;;;12.90;99.90;;;;;;5033782;28;20068;-74
2022/10/17 07:29:43;;;;;;;52.25;33.38;;;13.00;99.90;;;;;;5016048;28;20060;-73
2022/10/17 07:32:09;;;;;;;57.10;34.65;;;13.10;99.90;;;;;;5016169;28;20033;-74
2022/10/17 07:34:35;;;;;;;65.10;36.80;;;13.30;99.90;;;;;;5033744;28;20025;-74
2022/10/17 07:37:01;;;;;;;51.38;32.30;;;13.60;99.90;;;;;;5033755;28;20029;-74
2022/10/17 07:39:27;;;;;;;52.78;31.73;;;13.80;99.90;;;;;;5016065;28;20415;-74
2022/10/17 07:41:52;;;;;;;42.13;28.75;;;14.20;99.90;;;;;;5033449;28;20509;-74
2022/10/17 07:44:18;;;;;;;41.65;28.08;;;14.40;99.90;;;;;;5016030;28;20112;-74
2022/10/17 07:46:44;;;;;;;40.17;27.02;;;14.80;99.90;;;;;;5015915;28;20034;-74
2022/10/17 07:49:10;;;;;;;45.72;27.73;;;15.00;99.90;;;;;;5015903;28;20064;-74
2022/10/17 07:51:36;;;;;;;40.97;27.08;;;15.20;99.90;;;;;;5016998;28;20021;-74
2022/10/17 07:54:01;;;;;;;37.63;26.95;;;15.50;99.90;;;;;;5037675;28;20013;-73
2022/10/17 07:56:28;;;;;;;43.95;27.15;;;16.00;99.90;;;;;;5037761;28;20366;-74
2022/10/17 07:58:55;;;;;;;34.92;26.08;;;16.30;99.90;;;;;;5020032;28;20059;-74
2022/10/17 08:01:21;;;;;;;36.42;25.30;;;16.60;99.90;;;;;;5019798;28;20112;-74
2022/10/17 08:03:50;;;;;;;34.58;25.38;;;17.00;99.90;;;;;;5037648;28;20144;-74
2022/10/17 08:06:16;;;;;;;39.63;25.08;;;17.20;99.90;;;;;;5037404;28;20029;-74
2022/10/17 08:08:42;;;;;;;39.08;25.35;;;17.50;99.90;;;;;;5037334;28;20103;-74
2022/10/17 08:11:11;;;;;;;38.53;24.08;;;18.00;99.90;;;;;;5037748;28;20021;-74
2022/10/17 08:13:37;;;;;;;32.50;23.83;;;18.20;99.90;;;;;;5019712;28;20021;-74
2022/10/17 08:16:06;;;;;;;35.65;23.45;;;18.50;99.90;;;;;;5018586;28;20033;-74
2022/10/17 08:18:32;;;;;;;;;;;18.60;99.90;;;;;;5037974;28;20018;-75
2022/10/17 08:21:04;;;;;;;37.35;24.48;;;18.80;99.90;;;;;;5050375;28;20007;-75
2022/10/17 08:23:31;;;;;;;36.78;22.75;;;19.10;99.90;;;;;;5057472;28;20063;-75
2022/10/17 08:26:01;;;;;;;30.48;22.80;;;19.30;99.90;;;;;;5056656;28;20431;-74
2022/10/17 08:28:27;;;;;;;29.98;21.92;;;19.50;99.90;;;;;;5056842;28;20079;-74
2022/10/17 08:31:00;;;;;;;33.22;22.42;;;19.80;99.90;;;;;;5056948;28;20056;-75
2022/10/17 08:33:26;;;;;;;32.75;23.25;;;20.20;99.90;;;;;;5023594;28;20056;-74
2022/10/17 08:35:51;;;;;;;33.10;22.95;;;20.70;99.90;;;;;;5036591;28;20456;-75
2022/10/17 08:38:17;;;;;;;32.10;23.38;;;20.90;99.90;;;;;;5019144;28;20057;-75
2022/10/17 08:40:42;;;;;;;29.40;23.00;;;21.00;99.90;;;;;;5019054;28;20049;-74
2022/10/17 08:43:29;;;;;;;31.95;24.00;;;21.10;99.90;;;;;;5036858;28;20034;-75
2022/10/17 08:45:59;;;;;;;29.83;23.02;;;20.70;99.90;;;;;;5036819;28;20025;-75
2022/10/17 08:48:27;;;;;;;34.63;23.48;;;21.00;99.90;;;;;;5036788;28;20439;-75
2022/10/17 08:50:59;;;;;;;35.30;24.57;;;21.50;99.90;;;;;;5036606;28;20377;-75
2022/10/17 08:53:45;;;;;;;32.03;24.48;;;21.50;99.90;;;;;;5019002;28;20029;-75
2022/10/17 08:56:26;;;;;;;32.30;25.27;;;21.20;99.90;;;;;;5036742;28;20532;-75
2022/10/17 08:58:52;;;;;;;32.30;23.58;;;21.10;99.90;;;;;;5018924;28;20029;-76
2022/10/17 09:01:48;;;;;;;30.58;22.45;;;21.20;99.90;;;;;;5018188;28;20037;-76
2022/10/17 09:04:39;;;;;;;31.05;23.45;;;21.50;99.90;;;;;;5018738;28;20033;-75
2022/10/17 09:07:08;;;;;;;32.92;23.35;;;21.60;99.90;;;;;;5018257;28;20072;-75
2022/10/17 09:09:45;;;;;;;33.70;24.27;;;21.30;99.90;;;;;;5014769;28;20045;-75
2022/10/17 09:12:14;;;;;;;33.22;24.38;;;21.60;99.90;;;;;;5016098;28;20037;-76
2022/10/17 09:15:20;;;;;;;33.25;24.73;;;21.50;99.90;;;;;;5015116;28;20072;-76
2022/10/17 09:17:54;;;;;;;31.83;24.05;;;21.90;99.90;;;;;;5016622;28;20030;-76
2022/10/17 09:20:23;;;;;;;30.50;24.15;;;22.20;99.90;;;;;;5015142;28;20457;-76
2022/10/17 09:22:52;;;;;;;31.10;23.40;;;22.30;99.90;;;;;;5016173;28;20108;-76
2022/10/17 09:25:19;;;;;;;29.42;22.08;;;22.10;99.90;;;;;;5016176;28;20462;-76
2022/10/17 09:28:11;;;;;;;30.20;24.00;;;22.30;99.90;;;;;;5014822;28;20038;-75
2022/10/17 09:30:55;;;;;;;34.83;23.50;;;22.40;99.90;;;;;;5014937;28;20030;-76
2022/10/17 09:33:39;;;;;;;27.05;22.58;;;22.90;99.90;;;;;;5014877;28;20103;-77
2022/10/17 09:36:13;;;;;;;32.47;22.30;;;23.10;99.40;;;;;;5015905;28;20025;-77
2022/10/17 09:38:42;;;;;;;30.00;22.75;;;23.30;99.70;;;;;;5016002;28;20036;-77
2022/10/17 09:41:21;;;;;;;29.85;22.65;;;23.20;99.30;;;;;;5016427;28;20462;-76
2022/10/17 09:43:47;;;;;;;29.55;22.77;;;23.60;99.00;;;;;;5015554;28;20390;-77
2022/10/17 09:46:20;;;;;;;29.25;23.15;;;24.00;97.70;;;;;;5015538;28;20434;-76
2022/10/17 09:48:57;;;;;;;28.17;22.02;;;24.20;97.30;;;;;;5014452;28;20084;-76
2022/10/17 09:51:23;;;;;;;29.83;23.67;;;24.50;96.60;;;;;;5014491;28;20496;-76
2022/10/17 09:54:19;;;;;;;28.05;22.63;;;24.20;96.10;;;;;;5014433;28;20537;-75
2022/10/17 09:57:14;;;;;;;30.98;22.95;;;24.30;96.50;;;;;;5015909;28;20037;-77
2022/10/17 09:59:46;;;;;;;32.80;24.30;;;24.10;96.10;;;;;;4998266;28;20041;-77
2022/10/17 10:02:12;;;;;;;30.95;24.15;;;24.00;96.70;;;;;;5014521;28;20485;-77
2022/10/17 10:04:52;;;;;;;39.45;23.92;;;24.20;95.80;;;;;;5015104;28;20032;-77
2022/10/17 10:07:19;;;;;;;28.55;22.40;;;24.10;96.90;;;;;;5014126;28;20030;-77
2022/10/17 10:09:47;;;;;;;30.20;23.20;;;24.60;96.20;;;;;;5028999;28;20049;-77
2022/10/17 10:12:31;;;;;;;30.65;24.08;;;24.70;95.10;;;;;;5017792;28;20051;-78
2022/10/17 10:14:57;;;;;;;35.55;24.65;;;24.20;95.70;;;;;;5016585;28;20036;-78
2022/10/17 10:17:37;;;;;;;29.25;23.65;;;23.60;96.60;;;;;;5017331;28;20108;-77
2022/10/17 10:20:31;;;;;;;34.08;24.80;;;24.00;96.80;;;;;;5017230;28;20075;-78
2022/10/17 10:23:17;;;;;;;33.22;24.17;;;24.20;96.40;;;;;;5034876;28;20036;-78
2022/10/17 10:26:25;;;;;;;31.65;24.33;;;24.20;96.20;;;;;;5017204;28;20377;-77
2022/10/17 10:29:00;;;;;;;31.48;23.17;;;24.40;96.10;;;;;;5035065;28;20112;-78
2022/10/17 10:31:29;;;;;;;29.85;23.17;;;25.30;95.20;;;;;;5034950;28;20092;-78
2022/10/17 10:33:55;;;;;;;;;;;25.80;93.80;;;;;;5017369;28;20025;-78
2022/10/17 10:36:21;;;;;;;28.13;21.55;;;26.30;93.00;;;;;;5034688;28;20246;-78
2022/10/17 10:38:56;;;;;;;30.30;21.95;;;26.80;91.90;;;;;;5034299;28;20428;-78
2022/10/17 10:41:22;;;;;;;28.70;22.60;;;27.20;90.60;;;;;;5016899;28;20508;-78
2022/10/17 10:43:51;;;;;;;23.60;20.65;;;27.70;89.80;;;;;;5034459;28;20033;-78
2022/10/17 10:46:25;;;;;;;30.60;20.48;;;28.10;85.70;;;;;;5034633;28;20025;-78
2022/10/17 10:48:57;;;;;;;25.48;20.92;;;28.30;84.90;;;;;;5016758;28;20033;-77
2022/10/17 10:51:30;;;;;;;28.05;22.30;;;28.60;81.40;;;;;;5017071;28;20366;-76
2022/10/17 10:54:19;;;;;;;29.08;20.98;;;27.90;79.80;;;;;;5034449;28;20056;-76
2022/10/17 10:56:49;;;;;;;26.52;20.02;;;27.60;82.10;;;;;;5016922;28;20498;-60
2022/10/17 10:59:29;;;;;;;27.35;18.55;;;27.40;81.60;;;;;;5034401;28;20067;-60
2022/10/17 11:02:26;;;;;;;21.83;19.52;;;27.50;81.80;;;;;;5034522;28;20087;-60
2022/10/17 11:05:18;;;;;;;27.98;20.08;;;27.30;80.20;;;;;;5014879;28;20033;-60
2022/10/17 11:08:02;;;;;;;26.25;19.63;;;27.20;80.90;;;;;;5033484;28;20128;-60
2022/10/17 11:11:16;;;;;;;23.98;19.13;;;27.10;82.40;;;;;;4994831;28;20402;-60
2022/10/17 11:14:23;;;;;;;25.35;18.63;;;27.90;80.40;;;;;;4961367;28;20038;-61
2022/10/17 11:17:18;;;;;;;21.83;17.70;;;28.20;77.90;;;;;;4915707;29;20492;-60
2022/10/17 11:20:05;;;;;;;21.60;18.80;;;27.30;78.10;;;;;;4994045;28;20117;-60
2022/10/17 11:22:35;;;;;;;23.40;18.02;;;26.90;79.60;;;;;;4994859;28;20030;-60
2022/10/17 11:25:33;;;;;;;23.02;17.67;;;27.10;80.80;;;;;;4994496;28;20054;-60
2022/10/17 11:27:59;;;;;;;27.27;18.40;;;27.50;78.40;;;;;;4993943;28;20034;-61
2022/10/17 11:30:38;;;;;;;27.30;17.13;;;27.90;78.80;;;;;;4994551;28;20470;-60
2022/10/17 11:33:04;;;;;;;25.98;18.80;;;27.20;77.90;;;;;;4994767;28;20026;-60
2022/10/17 11:35:41;;;;;;;22.05;17.13;;;27.00;78.40;;;;;;4994429;28;20484;-60
2022/10/17 11:38:48;;;;;;;22.13;16.85;;;26.80;80.30;;;;;;4994292;28;20462;-60
2022/10/17 11:41:25;;;;;;;18.60;16.60;;;27.80;77.90;;;;;;4983759;28;20040;-60
2022/10/17 11:43:54;;;;;;;25.17;17.05;;;27.90;75.70;;;;;;4993043;28;20065;-60
2022/10/17 11:46:23;;;;;;;22.38;18.27;;;28.40;75.10;;;;;;4994125;28;20026;-60
2022/10/17 11:49:08;;;;;;;23.27;16.83;;;28.10;74.50;;;;;;4994032;28;20030;-60
2022/10/17 11:51:44;;;;;;;24.13;16.80;;;28.30;74.00;;;;;;4993969;28;20149;-61
2022/10/17 11:54:29;;;;;;;24.05;17.27;;;28.50;72.80;;;;;;4994143;28;20090;-60
2022/10/17 11:57:33;;;;;;;22.17;16.52;;;28.40;73.00;;;;;;4994228;28;20088;-60
2022/10/17 12:00:20;;;;;;;18.92;16.45;;;28.20;72.20;;;;;;4994102;28;20066;-60
2022/10/17 12:03:04;;;;;;;22.20;16.60;;;27.70;73.40;;;;;;4992786;28;20037;-60
2022/10/17 12:05:42;;;;;;;20.25;16.10;;;27.30;74.50;;;;;;4994024;28;20058;-60
2022/10/17 12:08:16;;;;;;;19.33;16.15;;;27.40;74.40;;;;;;4995101;28;20485;-60
2022/10/17 12:11:02;;;;;;;19.50;15.00;;;27.60;74.50;;;;;;5033038;28;20381;-60
2022/10/17 12:13:28;;;;;;;25.42;15.57;;;27.90;73.80;;;;;;5033871;28;20045;-60
2022/10/17 12:16:34;;;;;;;21.73;15.23;;;28.20;71.70;;;;;;5033547;28;20437;-60
2022/10/17 12:18:59;;;;;;;19.27;15.35;;;28.40;70.60;;;;;;5032718;28;20061;-60
2022/10/17 12:21:25;;;;;;;32.72;15.60;;;27.80;71.80;;;;;;5016074;28;20347;-60
2022/10/17 12:23:52;;;;;;;19.50;14.93;;;27.60;72.30;;;;;;5033071;28;20029;-60
2022/10/17 12:26:28;;;;;;;20.63;14.77;;;27.90;71.70;;;;;;5033432;28;20113;-60
2022/10/17 12:28:55;;;;;;;19.33;14.70;;;28.10;71.50;;;;;;5032862;28;20393;-60
2022/10/17 12:31:26;;;;;;;24.13;15.43;;;28.30;71.70;;;;;;5033209;28;20017;-60
2022/10/17 12:33:56;;;;;;;19.48;14.52;;;29.00;69.20;;;;;;5033172;28;20021;-60
2022/10/17 12:36:25;;;;;;;18.38;15.43;;;28.50;68.70;;;;;;5033152;28;20041;-60
2022/10/17 12:39:13;;;;;;;18.17;14.55;;;27.90;69.00;;;;;;5035762;28;20457;-61
2022/10/17 12:41:39;;;;;;;20.05;15.68;;;27.60;71.30;;;;;;4988384;28;20034;-60
2022/10/17 12:44:13;;;;;;;20.45;14.93;;;28.00;70.70;;;;;;5018888;28;20028;-60
2022/10/17 12:46:50;;;;;;;19.35;15.50;;;28.30;69.40;;;;;;5036621;28;20037;-60
2022/10/17 12:49:35;;;;;;;18.35;14.50;;;28.30;69.70;;;;;;5036788;28;20036;-81
2022/10/17 12:52:22;;;;;;;19.90;15.18;;;29.00;67.00;;;;;;5019153;28;20353;-82